sensor_id;sensor_type;location;lat;lon;timestamp;P1;durP1;ratioP1;P2;durP2;ratioP2
80119;SDS011;69425;55.040;82.918;2023-06-22T00:01:58;4.05;;;1.85;;
80119;SDS011;69425;55.040;82.918;2023-06-22T00:06:59;4.55;;;1.90;;
80119;SDS011;69425;55.040;82.918;2023-06-22T00:12:03;5.80;;;2.17;;
80119;SDS011;69425;55.040;82.918;2023-06-22T00:17:04;9.07;;;2.97;;
80119;SDS011;69425;55.040;82.918;2023-06-22T00:22:06;9.25;;;3.20;;
80119;SDS011;69425;55.040;82.918;2023-06-22T00:27:08;6.72;;;2.42;;
80119;SDS011;69425;55.040;82.918;2023-06-22T00:32:09;7.85;;;2.45;;
80119;SDS011;69425;55.040;82.918;2023-06-22T00:37:11;6.13;;;2.05;;
80119;SDS011;69425;55.040;82.918;2023-06-22T00:42:13;8.52;;;3.00;;
80119;SDS011;69425;55.040;82.918;2023-06-22T00:47:15;7.25;;;2.10;;
80119;SDS011;69425;55.040;82.918;2023-06-22T00:52:16;6.45;;;1.85;;
80119;SDS011;69425;55.040;82.918;2023-06-22T00:57:19;6.70;;;2.10;;
80119;SDS011;69425;55.040;82.918;2023-06-22T01:02:21;3.70;;;1.42;;
80119;SDS011;69425;55.040;82.918;2023-06-22T01:07:24;6.70;;;1.85;;
80119;SDS011;69425;55.040;82.918;2023-06-22T01:12:31;4.68;;;1.75;;
80119;SDS011;69425;55.040;82.918;2023-06-22T01:17:35;2.40;;;1.40;;
80119;SDS011;69425;55.040;82.918;2023-06-22T01:22:40;3.47;;;1.58;;
80119;SDS011;69425;55.040;82.918;2023-06-22T01:27:50;3.42;;;1.42;;
80119;SDS011;69425;55.040;82.918;2023-06-22T01:32:58;3.42;;;1.60;;
80119;SDS011;69425;55.040;82.918;2023-06-22T01:38:00;1.67;;;1.05;;
80119;SDS011;69425;55.040;82.918;2023-06-22T01:43:02;4.28;;;2.00;;
80119;SDS011;69425;55.040;82.918;2023-06-22T01:48:10;4.20;;;1.42;;
80119;SDS011;69425;55.040;82.918;2023-06-22T01:53:11;4.65;;;2.17;;
80119;SDS011;69425;55.040;82.918;2023-06-22T01:58:12;7.03;;;1.98;;
80119;SDS011;69425;55.040;82.918;2023-06-22T02:03:17;5.68;;;1.73;;
80119;SDS011;69425;55.040;82.918;2023-06-22T02:08:20;3.38;;;1.80;;
80119;SDS011;69425;55.040;82.918;2023-06-22T02:13:23;4.93;;;1.67;;
80119;SDS011;69425;55.040;82.918;2023-06-22T02:18:26;5.75;;;1.88;;
80119;SDS011;69425;55.040;82.918;2023-06-22T02:23:27;4.90;;;2.10;;
80119;SDS011;69425;55.040;82.918;2023-06-22T02:28:29;3.20;;;1.38;;
80119;SDS011;69425;55.040;82.918;2023-06-22T02:33:31;2.90;;;1.42;;
80119;SDS011;69425;55.040;82.918;2023-06-22T02:38:32;2.83;;;1.30;;
80119;SDS011;69425;55.040;82.918;2023-06-22T02:43:34;4.13;;;1.42;;
80119;SDS011;69425;55.040;82.918;2023-06-22T02:48:36;3.33;;;1.27;;
80119;SDS011;69425;55.040;82.918;2023-06-22T02:53:37;2.88;;;1.42;;
80119;SDS011;69425;55.040;82.918;2023-06-22T02:58:39;5.72;;;1.42;;
80119;SDS011;69425;55.040;82.918;2023-06-22T03:03:42;3.63;;;1.27;;
80119;SDS011;69425;55.040;82.918;2023-06-22T03:08:43;6.13;;;1.80;;
80119;SDS011;69425;55.040;82.918;2023-06-22T03:13:44;3.05;;;1.23;;
80119;SDS011;69425;55.040;82.918;2023-06-22T03:18:47;8.98;;;1.73;;
80119;SDS011;69425;55.040;82.918;2023-06-22T03:23:48;4.85;;;1.20;;
80119;SDS011;69425;55.040;82.918;2023-06-22T03:28:49;2.47;;;1.20;;
80119;SDS011;69425;55.040;82.918;2023-06-22T03:33:52;1.88;;;0.95;;
80119;SDS011;69425;55.040;82.918;2023-06-22T03:38:53;4.30;;;1.27;;
80119;SDS011;69425;55.040;82.918;2023-06-22T03:43:54;1.73;;;0.82;;
80119;SDS011;69425;55.040;82.918;2023-06-22T03:48:57;3.35;;;0.95;;
80119;SDS011;69425;55.040;82.918;2023-06-22T03:53:58;2.35;;;0.70;;
80119;SDS011;69425;55.040;82.918;2023-06-22T03:59:00;2.70;;;1.00;;
80119;SDS011;69425;55.040;82.918;2023-06-22T04:04:02;2.88;;;0.93;;
80119;SDS011;69425;55.040;82.918;2023-06-22T04:09:05;1.80;;;0.68;;
80119;SDS011;69425;55.040;82.918;2023-06-22T04:14:06;1.27;;;0.55;;
80119;SDS011;69425;55.040;82.918;2023-06-22T04:19:09;1.40;;;0.77;;
80119;SDS011;69425;55.040;82.918;2023-06-22T04:24:10;1.42;;;0.60;;
80119;SDS011;69425;55.040;82.918;2023-06-22T04:29:11;4.20;;;0.88;;
80119;SDS011;69425;55.040;82.918;2023-06-22T04:34:17;2.95;;;1.05;;
80119;SDS011;69425;55.040;82.918;2023-06-22T04:39:18;2.83;;;1.02;;
80119;SDS011;69425;55.040;82.918;2023-06-22T04:44:19;1.60;;;0.93;;
80119;SDS011;69425;55.040;82.918;2023-06-22T04:49:24;1.90;;;0.95;;
80119;SDS011;69425;55.040;82.918;2023-06-22T04:54:25;1.52;;;1.25;;
80119;SDS011;69425;55.040;82.918;2023-06-22T04:59:26;5.75;;;0.93;;
80119;SDS011;69425;55.040;82.918;2023-06-22T05:04:30;2.05;;;1.02;;
80119;SDS011;69425;55.040;82.918;2023-06-22T05:09:31;1.73;;;1.05;;
80119;SDS011;69425;55.040;82.918;2023-06-22T05:14:32;2.50;;;1.10;;
80119;SDS011;69425;55.040;82.918;2023-06-22T05:19:35;2.63;;;1.90;;
80119;SDS011;69425;55.040;82.918;2023-06-22T05:24:37;6.28;;;1.45;;
80119;SDS011;69425;55.040;82.918;2023-06-22T05:29:38;3.20;;;1.30;;
80119;SDS011;69425;55.040;82.918;2023-06-22T05:34:41;2.13;;;1.00;;
80119;SDS011;69425;55.040;82.918;2023-06-22T05:39:42;7.75;;;1.25;;
80119;SDS011;69425;55.040;82.918;2023-06-22T05:44:43;4.43;;;1.40;;
80119;SDS011;69425;55.040;82.918;2023-06-22T05:49:46;3.05;;;1.13;;
80119;SDS011;69425;55.040;82.918;2023-06-22T05:54:52;3.63;;;1.15;;
80119;SDS011;69425;55.040;82.918;2023-06-22T06:00:01;3.60;;;1.13;;
80119;SDS011;69425;55.040;82.918;2023-06-22T06:05:06;2.75;;;0.88;;
80119;SDS011;69425;55.040;82.918;2023-06-22T06:10:08;4.75;;;1.15;;
80119;SDS011;69425;55.040;82.918;2023-06-22T06:15:10;4.22;;;1.00;;
80119;SDS011;69425;55.040;82.918;2023-06-22T06:20:13;5.13;;;1.00;;
80119;SDS011;69425;55.040;82.918;2023-06-22T06:25:14;3.55;;;0.80;;
80119;SDS011;69425;55.040;82.918;2023-06-22T06:30:16;5.82;;;1.10;;
80119;SDS011;69425;55.040;82.918;2023-06-22T06:35:20;3.92;;;1.63;;
80119;SDS011;69425;55.040;82.918;2023-06-22T06:40:21;7.32;;;1.20;;
80119;SDS011;69425;55.040;82.918;2023-06-22T06:45:23;3.70;;;1.35;;
80119;SDS011;69425;55.040;82.918;2023-06-22T06:50:26;3.30;;;0.95;;
80119;SDS011;69425;55.040;82.918;2023-06-22T06:55:28;1.80;;;0.68;;
80119;SDS011;69425;55.040;82.918;2023-06-22T07:00:29;1.85;;;0.80;;
80119;SDS011;69425;55.040;82.918;2023-06-22T07:05:31;7.28;;;1.20;;
80119;SDS011;69425;55.040;82.918;2023-06-22T07:10:33;7.07;;;1.63;;
80119;SDS011;69425;55.040;82.918;2023-06-22T07:15:34;7.78;;;2.63;;
80119;SDS011;69425;55.040;82.918;2023-06-22T07:20:37;9.32;;;1.50;;
80119;SDS011;69425;55.040;82.918;2023-06-22T07:25:38;2.88;;;1.08;;
80119;SDS011;69425;55.040;82.918;2023-06-22T07:30:39;3.95;;;1.45;;
80119;SDS011;69425;55.040;82.918;2023-06-22T07:35:42;2.88;;;1.10;;
80119;SDS011;69425;55.040;82.918;2023-06-22T07:40:43;2.53;;;1.10;;
80119;SDS011;69425;55.040;82.918;2023-06-22T07:45:47;3.15;;;1.15;;
80119;SDS011;69425;55.040;82.918;2023-06-22T07:50:50;2.38;;;1.13;;
80119;SDS011;69425;55.040;82.918;2023-06-22T07:55:51;7.35;;;1.60;;
80119;SDS011;69425;55.040;82.918;2023-06-22T08:00:53;2.67;;;1.08;;
80119;SDS011;69425;55.040;82.918;2023-06-22T08:05:55;1.58;;;0.85;;
80119;SDS011;69425;55.040;82.918;2023-06-22T08:10:57;2.70;;;0.90;;
80119;SDS011;69425;55.040;82.918;2023-06-22T08:15:58;4.38;;;1.17;;
80119;SDS011;69425;55.040;82.918;2023-06-22T08:21:00;3.22;;;0.88;;
80119;SDS011;69425;55.040;82.918;2023-06-22T08:26:02;5.28;;;0.93;;
80119;SDS011;69425;55.040;82.918;2023-06-22T08:31:05;4.43;;;0.98;;
80119;SDS011;69425;55.040;82.918;2023-06-22T08:36:08;5.60;;;1.20;;
80119;SDS011;69425;55.040;82.918;2023-06-22T08:41:09;3.97;;;1.00;;
80119;SDS011;69425;55.040;82.918;2023-06-22T08:46:10;0.80;;;0.63;;
80119;SDS011;69425;55.040;82.918;2023-06-22T08:51:13;0.93;;;0.70;;
80119;SDS011;69425;55.040;82.918;2023-06-22T08:56:14;1.50;;;0.60;;
80119;SDS011;69425;55.040;82.918;2023-06-22T09:01:15;4.50;;;0.70;;
80119;SDS011;69425;55.040;82.918;2023-06-22T09:06:18;1.42;;;0.75;;
80119;SDS011;69425;55.040;82.918;2023-06-22T09:11:19;1.58;;;0.70;;
80119;SDS011;69425;55.040;82.918;2023-06-22T09:16:20;2.53;;;0.82;;
80119;SDS011;69425;55.040;82.918;2023-06-22T09:21:23;2.83;;;1.13;;
80119;SDS011;69425;55.040;82.918;2023-06-22T09:26:24;2.72;;;0.77;;
80119;SDS011;69425;55.040;82.918;2023-06-22T09:31:26;1.65;;;0.60;;
80119;SDS011;69425;55.040;82.918;2023-06-22T09:36:28;1.38;;;0.52;;
80119;SDS011;69425;55.040;82.918;2023-06-22T09:41:29;1.23;;;0.60;;
80119;SDS011;69425;55.040;82.918;2023-06-22T09:46:31;1.17;;;0.63;;
80119;SDS011;69425;55.040;82.918;2023-06-22T09:51:33;0.85;;;0.70;;
80119;SDS011;69425;55.040;82.918;2023-06-22T09:56:35;1.15;;;0.50;;
80119;SDS011;69425;55.040;82.918;2023-06-22T10:01:36;2.97;;;1.02;;
80119;SDS011;69425;55.040;82.918;2023-06-22T10:06:42;2.67;;;0.50;;
80119;SDS011;69425;55.040;82.918;2023-06-22T10:11:43;1.77;;;0.60;;
80119;SDS011;69425;55.040;82.918;2023-06-22T10:16:45;2.95;;;0.93;;
80119;SDS011;69425;55.040;82.918;2023-06-22T10:21:47;2.42;;;0.73;;
80119;SDS011;69425;55.040;82.918;2023-06-22T10:26:49;2.10;;;1.15;;
80119;SDS011;69425;55.040;82.918;2023-06-22T10:31:50;3.67;;;1.23;;
80119;SDS011;69425;55.040;82.918;2023-06-22T10:36:52;4.85;;;1.25;;
80119;SDS011;69425;55.040;82.918;2023-06-22T10:41:54;2.45;;;0.88;;
80119;SDS011;69425;55.040;82.918;2023-06-22T10:46:55;2.80;;;1.00;;
80119;SDS011;69425;55.040;82.918;2023-06-22T10:51:57;3.20;;;1.02;;
80119;SDS011;69425;55.040;82.918;2023-06-22T10:56:59;4.95;;;1.30;;
80119;SDS011;69425;55.040;82.918;2023-06-22T11:02:00;2.85;;;1.23;;
80119;SDS011;69425;55.040;82.918;2023-06-22T11:07:03;5.30;;;2.10;;
80119;SDS011;69425;55.040;82.918;2023-06-22T11:12:05;3.05;;;0.85;;
80119;SDS011;69425;55.040;82.918;2023-06-22T11:17:07;3.17;;;0.90;;
80119;SDS011;69425;55.040;82.918;2023-06-22T11:22:09;3.40;;;0.75;;
80119;SDS011;69425;55.040;82.918;2023-06-22T11:27:10;3.80;;;1.20;;
80119;SDS011;69425;55.040;82.918;2023-06-22T11:32:12;1.15;;;0.68;;
80119;SDS011;69425;55.040;82.918;2023-06-22T11:37:15;1.58;;;0.70;;
80119;SDS011;69425;55.040;82.918;2023-06-22T11:42:41;3.40;;;1.10;;
80119;SDS011;69425;55.040;82.918;2023-06-22T11:47:42;1.83;;;0.80;;
80119;SDS011;69425;55.040;82.918;2023-06-22T11:52:45;4.72;;;0.80;;
80119;SDS011;69425;55.040;82.918;2023-06-22T11:57:53;3.30;;;1.10;;
80119;SDS011;69425;55.040;82.918;2023-06-22T12:02:55;5.70;;;1.25;;
80119;SDS011;69425;55.040;82.918;2023-06-22T12:07:58;3.22;;;1.17;;
80119;SDS011;69425;55.040;82.918;2023-06-22T12:12:59;7.07;;;1.38;;
80119;SDS011;69425;55.040;82.918;2023-06-22T12:18:01;5.45;;;1.10;;
80119;SDS011;69425;55.040;82.918;2023-06-22T12:23:04;4.68;;;0.77;;
80119;SDS011;69425;55.040;82.918;2023-06-22T12:28:05;2.28;;;1.23;;
80119;SDS011;69425;55.040;82.918;2023-06-22T12:33:06;1.42;;;1.05;;
80119;SDS011;69425;55.040;82.918;2023-06-22T12:38:09;1.50;;;1.02;;
80119;SDS011;69425;55.040;82.918;2023-06-22T12:43:10;4.72;;;1.08;;
80119;SDS011;69425;55.040;82.918;2023-06-22T12:48:11;2.28;;;1.00;;
80119;SDS011;69425;55.040;82.918;2023-06-22T12:53:14;2.35;;;1.30;;
80119;SDS011;69425;55.040;82.918;2023-06-22T12:58:15;2.70;;;1.17;;
80119;SDS011;69425;55.040;82.918;2023-06-22T13:03:16;2.42;;;1.05;;
80119;SDS011;69425;55.040;82.918;2023-06-22T13:08:19;2.63;;;1.05;;
80119;SDS011;69425;55.040;82.918;2023-06-22T13:13:20;2.35;;;1.17;;
80119;SDS011;69425;55.040;82.918;2023-06-22T13:18:22;2.05;;;1.05;;
80119;SDS011;69425;55.040;82.918;2023-06-22T13:23:24;3.70;;;1.42;;
80119;SDS011;69425;55.040;82.918;2023-06-22T13:28:25;3.42;;;1.50;;
80119;SDS011;69425;55.040;82.918;2023-06-22T13:33:27;2.17;;;1.55;;
80119;SDS011;69425;55.040;82.918;2023-06-22T13:38:29;2.67;;;1.38;;
80119;SDS011;69425;55.040;82.918;2023-06-22T13:43:31;1.77;;;1.30;;
80119;SDS011;69425;55.040;82.918;2023-06-22T13:48:32;2.75;;;1.30;;
80119;SDS011;69425;55.040;82.918;2023-06-22T13:53:35;2.33;;;1.60;;
80119;SDS011;69425;55.040;82.918;2023-06-22T13:58:36;2.55;;;1.63;;
80119;SDS011;69425;55.040;82.918;2023-06-22T14:03:37;2.63;;;1.42;;
80119;SDS011;69425;55.040;82.918;2023-06-22T14:08:40;5.13;;;2.30;;
80119;SDS011;69425;55.040;82.918;2023-06-22T14:13:41;7.78;;;2.60;;
80119;SDS011;69425;55.040;82.918;2023-06-22T14:18:43;3.58;;;2.05;;
80119;SDS011;69425;55.040;82.918;2023-06-22T14:23:46;3.38;;;2.00;;
80119;SDS011;69425;55.040;82.918;2023-06-22T14:28:47;3.28;;;1.58;;
80119;SDS011;69425;55.040;82.918;2023-06-22T14:33:49;2.58;;;1.77;;
80119;SDS011;69425;55.040;82.918;2023-06-22T14:38:52;3.65;;;2.10;;
80119;SDS011;69425;55.040;82.918;2023-06-22T14:43:53;3.10;;;1.90;;
80119;SDS011;69425;55.040;82.918;2023-06-22T14:48:54;3.13;;;1.35;;
80119;SDS011;69425;55.040;82.918;2023-06-22T14:53:57;4.75;;;1.80;;
80119;SDS011;69425;55.040;82.918;2023-06-22T14:58:58;3.88;;;2.13;;
80119;SDS011;69425;55.040;82.918;2023-06-22T15:03:59;3.40;;;2.08;;
80119;SDS011;69425;55.040;82.918;2023-06-22T15:09:02;5.40;;;2.38;;
80119;SDS011;69425;55.040;82.918;2023-06-22T15:14:03;3.50;;;2.25;;
80119;SDS011;69425;55.040;82.918;2023-06-22T15:19:05;3.40;;;1.95;;
80119;SDS011;69425;55.040;82.918;2023-06-22T15:24:07;2.92;;;1.85;;
80119;SDS011;69425;55.040;82.918;2023-06-22T15:29:09;4.65;;;2.47;;
80119;SDS011;69425;55.040;82.918;2023-06-22T15:34:10;6.78;;;2.80;;
80119;SDS011;69425;55.040;82.918;2023-06-22T15:39:15;4.78;;;1.98;;
80119;SDS011;69425;55.040;82.918;2023-06-22T15:44:16;2.67;;;1.77;;
80119;SDS011;69425;55.040;82.918;2023-06-22T15:49:17;3.90;;;2.30;;
80119;SDS011;69425;55.040;82.918;2023-06-22T15:54:20;4.95;;;2.22;;
80119;SDS011;69425;55.040;82.918;2023-06-22T15:59:21;2.50;;;1.80;;
80119;SDS011;69425;55.040;82.918;2023-06-22T16:04:22;2.53;;;1.90;;
80119;SDS011;69425;55.040;82.918;2023-06-22T16:09:25;4.05;;;1.58;;
80119;SDS011;69425;55.040;82.918;2023-06-22T16:14:26;3.40;;;1.95;;
80119;SDS011;69425;55.040;82.918;2023-06-22T16:19:28;2.72;;;1.58;;
80119;SDS011;69425;55.040;82.918;2023-06-22T16:24:30;2.90;;;1.48;;
80119;SDS011;69425;55.040;82.918;2023-06-22T16:29:31;3.38;;;1.63;;
80119;SDS011;69425;55.040;82.918;2023-06-22T16:34:33;1.58;;;1.10;;
80119;SDS011;69425;55.040;82.918;2023-06-22T16:39:35;2.42;;;1.40;;
80119;SDS011;69425;55.040;82.918;2023-06-22T16:44:36;2.20;;;1.30;;
80119;SDS011;69425;55.040;82.918;2023-06-22T16:49:38;2.45;;;1.40;;
80119;SDS011;69425;55.040;82.918;2023-06-22T16:54:41;6.35;;;1.20;;
80119;SDS011;69425;55.040;82.918;2023-06-22T16:59:42;1.92;;;1.40;;
80119;SDS011;69425;55.040;82.918;2023-06-22T17:04:44;3.03;;;1.23;;
80119;SDS011;69425;55.040;82.918;2023-06-22T17:09:48;2.35;;;1.13;;
80119;SDS011;69425;55.040;82.918;2023-06-22T17:14:50;3.38;;;1.95;;
80119;SDS011;69425;55.040;82.918;2023-06-22T17:19:52;2.17;;;1.27;;
80119;SDS011;69425;55.040;82.918;2023-06-22T17:24:54;1.98;;;1.33;;
80119;SDS011;69425;55.040;82.918;2023-06-22T17:30:03;2.97;;;1.27;;
80119;SDS011;69425;55.040;82.918;2023-06-22T17:35:06;1.70;;;1.05;;
80119;SDS011;69425;55.040;82.918;2023-06-22T17:40:13;2.53;;;1.25;;
80119;SDS011;69425;55.040;82.918;2023-06-22T17:45:15;2.00;;;1.17;;
80119;SDS011;69425;55.040;82.918;2023-06-22T17:50:17;2.22;;;1.27;;
80119;SDS011;69425;55.040;82.918;2023-06-22T17:55:21;2.38;;;1.23;;
80119;SDS011;69425;55.040;82.918;2023-06-22T18:00:22;2.05;;;0.90;;
80119;SDS011;69425;55.040;82.918;2023-06-22T18:05:30;2.33;;;1.27;;
80119;SDS011;69425;55.040;82.918;2023-06-22T18:10:33;2.28;;;1.10;;
80119;SDS011;69425;55.040;82.918;2023-06-22T18:15:35;2.53;;;0.90;;
80119;SDS011;69425;55.040;82.918;2023-06-22T18:20:38;4.05;;;1.08;;
80119;SDS011;69425;55.040;82.918;2023-06-22T18:25:41;1.85;;;0.98;;
80119;SDS011;69425;55.040;82.918;2023-06-22T18:30:43;1.60;;;0.88;;
80119;SDS011;69425;55.040;82.918;2023-06-22T18:35:44;2.92;;;0.80;;
80119;SDS011;69425;55.040;82.918;2023-06-22T18:40:49;1.73;;;0.60;;
80119;SDS011;69425;55.040;82.918;2023-06-22T18:45:51;1.40;;;0.43;;
80119;SDS011;69425;55.040;82.918;2023-06-22T18:50:52;1.10;;;0.70;;
80119;SDS011;69425;55.040;82.918;2023-06-22T18:56:10;2.30;;;0.95;;
80119;SDS011;69425;55.040;82.918;2023-06-22T19:01:15;2.20;;;0.93;;
80119;SDS011;69425;55.040;82.918;2023-06-22T19:11:52;1.10;;;0.70;;
80119;SDS011;69425;55.040;82.918;2023-06-22T19:17:18;1.02;;;0.52;;
80119;SDS011;69425;55.040;82.918;2023-06-22T19:22:19;1.17;;;0.50;;
80119;SDS011;69425;55.040;82.918;2023-06-22T19:27:30;0.88;;;0.40;;
80119;SDS011;69425;55.040;82.918;2023-06-22T19:32:31;1.00;;;0.55;;
80119;SDS011;69425;55.040;82.918;2023-06-22T19:37:32;1.02;;;0.65;;
80119;SDS011;69425;55.040;82.918;2023-06-22T19:42:37;3.22;;;1.48;;
80119;SDS011;69425;55.040;82.918;2023-06-22T19:47:42;4.25;;;1.63;;
80119;SDS011;69425;55.040;82.918;2023-06-22T19:52:45;3.20;;;1.90;;
80119;SDS011;69425;55.040;82.918;2023-06-22T19:57:48;2.25;;;1.10;;
80119;SDS011;69425;55.040;82.918;2023-06-22T20:02:50;1.48;;;1.10;;
80119;SDS011;69425;55.040;82.918;2023-06-22T20:07:53;2.13;;;0.70;;
80119;SDS011;69425;55.040;82.918;2023-06-22T20:12:56;1.60;;;0.70;;
80119;SDS011;69425;55.040;82.918;2023-06-22T20:18:01;1.27;;;0.65;;
80119;SDS011;69425;55.040;82.918;2023-06-22T20:23:03;0.75;;;0.68;;
80119;SDS011;69425;55.040;82.918;2023-06-22T20:28:09;1.55;;;0.63;;
80119;SDS011;69425;55.040;82.918;2023-06-22T20:33:15;2.28;;;0.50;;
80119;SDS011;69425;55.040;82.918;2023-06-22T20:38:16;1.65;;;0.60;;
80119;SDS011;69425;55.040;82.918;2023-06-22T20:43:19;0.68;;;0.40;;
80119;SDS011;69425;55.040;82.918;2023-06-22T20:48:20;0.88;;;0.50;;
80119;SDS011;69425;55.040;82.918;2023-06-22T20:53:22;1.05;;;0.45;;
80119;SDS011;69425;55.040;82.918;2023-06-22T20:58:25;2.30;;;0.60;;
80119;SDS011;69425;55.040;82.918;2023-06-22T21:03:26;2.30;;;0.50;;
80119;SDS011;69425;55.040;82.918;2023-06-22T21:08:27;0.93;;;0.40;;
80119;SDS011;69425;55.040;82.918;2023-06-22T21:18:31;2.42;;;0.73;;
80119;SDS011;69425;55.040;82.918;2023-06-22T21:28:34;1.15;;;0.73;;
80119;SDS011;69425;55.040;82.918;2023-06-22T21:33:35;1.02;;;0.70;;
80119;SDS011;69425;55.040;82.918;2023-06-22T21:38:36;1.50;;;0.60;;
80119;SDS011;69425;55.040;82.918;2023-06-22T21:48:42;0.90;;;0.50;;
80119;SDS011;69425;55.040;82.918;2023-06-22T21:58:45;0.73;;;0.40;;
80119;SDS011;69425;55.040;82.918;2023-06-22T22:03:47;2.78;;;0.65;;
80119;SDS011;69425;55.040;82.918;2023-06-22T22:08:48;2.60;;;0.55;;
80119;SDS011;69425;55.040;82.918;2023-06-22T22:13:51;2.97;;;1.33;;
80119;SDS011;69425;55.040;82.918;2023-06-22T22:18:52;3.95;;;2.83;;
80119;SDS011;69425;55.040;82.918;2023-06-22T22:28:55;2.92;;;1.77;;
80119;SDS011;69425;55.040;82.918;2023-06-22T22:33:57;4.53;;;1.00;;
80119;SDS011;69425;55.040;82.918;2023-06-22T22:44:00;1.45;;;0.68;;
80119;SDS011;69425;55.040;82.918;2023-06-22T22:49:01;2.42;;;1.77;;
80119;SDS011;69425;55.040;82.918;2023-06-22T22:54:02;4.95;;;2.40;;
80119;SDS011;69425;55.040;82.918;2023-06-22T23:04:06;2.75;;;1.17;;
80119;SDS011;69425;55.040;82.918;2023-06-22T23:09:07;2.63;;;1.40;;
80119;SDS011;69425;55.040;82.918;2023-06-22T23:19:11;1.10;;;0.80;;
80119;SDS011;69425;55.040;82.918;2023-06-22T23:29:14;8.07;;;2.70;;
80119;SDS011;69425;55.040;82.918;2023-06-22T23:34:15;7.78;;;3.38;;
80119;SDS011;69425;55.040;82.918;2023-06-22T23:44:19;2.35;;;1.52;;
80119;SDS011;69425;55.040;82.918;2023-06-22T23:49:20;1.80;;;1.00;;
80119;SDS011;69425;55.040;82.918;2023-06-22T23:54:21;1.38;;;0.70;;
80119;SDS011;69425;55.040;82.918;2023-06-22T23:59:24;2.10;;;0.70;;
